Time;durP1;ratioP1;P1;durP2;ratioP2;P2;SDS_P1;SDS_P2;PMS_P1;PMS_P2;Temp;Humidity;BMP_temperature;BMP_pressure;BME280_temperature;BME280_humidity;BME280_pressure;Samples;Min_cycle;Max_cycle;Signal;HPM_P1;HPM_P2
2021/05/18 00:00:46;;;;;;;11.50;6.05;;;;;;;8.60;83.07;98888.81;5012813;28;20049;-62
2021/05/18 00:03:11;;;;;;;9.27;6.78;;;;;;;8.53;83.90;98888.94;5012068;28;20030;-62
2021/05/18 00:05:38;;;;;;;11.55;5.93;;;;;;;8.45;84.02;98883.19;4995450;28;20488;-62
2021/05/18 00:08:06;;;;;;;8.95;6.30;;;;;;;8.46;84.98;98890.13;5013148;28;20037;-62
2021/05/18 00:13:18;;;;;;;8.27;5.47;;;;;;;8.43;83.77;98886.88;5013231;28;20033;-62
2021/05/18 00:15:44;;;;;;;9.07;5.13;;;;;;;8.42;84.02;98895.94;5012827;28;20034;-62
2021/05/18 00:18:09;;;;;;;8.63;6.35;;;;;;;8.31;84.69;98891.44;5013233;28;20029;-62
2021/05/18 00:20:35;;;;;;;8.88;5.50;;;;;;;8.34;85.11;98885.63;5012870;28;20080;-62
2021/05/18 00:23:05;;;;;;;12.48;6.53;;;;;;;8.24;85.58;98882.75;5013229;28;20026;-62
2021/05/18 00:25:30;;;;;;;11.57;6.53;;;;;;;8.24;85.88;98887.25;5012629;28;20042;-62
2021/05/18 00:27:56;;;;;;;9.10;6.22;;;;;;;8.19;86.31;98895.97;5013115;28;20025;-62
2021/05/18 00:30:22;;;;;;;8.27;6.30;;;;;;;8.19;86.30;98904.78;5012567;28;20164;-62
2021/05/18 00:32:47;;;;;;;11.60;7.00;;;;;;;8.22;86.00;98895.50;5013173;28;20102;-62
2021/05/18 00:35:13;;;;;;;9.10;6.53;;;;;;;8.17;86.39;98906.88;5012563;28;20026;-62
2021/05/18 00:37:38;;;;;;;8.95;6.32;;;;;;;8.13;86.56;98902.25;5013102;28;20026;-62
2021/05/18 00:40:06;;;;;;;12.55;6.85;;;;;;;8.09;87.02;98896.56;5012520;28;20030;-62
2021/05/18 00:42:31;;;;;;;10.27;6.40;;;;;;;8.15;86.53;98892.16;5012858;28;20474;-62
2021/05/18 00:44:57;;;;;;;8.30;5.72;;;;;;;8.09;86.98;98895.78;5013188;28;20068;-62
2021/05/18 00:47:22;;;;;;;15.13;6.18;;;;;;;8.01;87.25;98896.91;4995095;28;20126;-62
2021/05/18 00:49:48;;;;;;;9.43;5.47;;;;;;;8.02;87.29;98903.09;5012779;28;20029;-62
2021/05/18 00:52:13;;;;;;;10.38;6.00;;;;;;;8.00;87.45;98909.44;5012349;28;20493;-61
2021/05/18 00:54:51;;;;;;;10.35;6.20;;;;;;;8.00;86.76;98909.44;5012827;28;20370;-61
2021/05/18 01:00:00;;;;;;;8.05;5.72;;;;;;;7.93;87.12;98902.59;5012858;28;20041;-61
2021/05/18 01:02:26;;;;;;;11.35;5.95;;;;;;;7.95;86.93;98895.19;4995070;28;20038;-62
2021/05/18 01:05:06;;;;;;;9.25;5.95;;;;;;;7.93;87.09;98900.75;5012796;28;20026;-61
2021/05/18 01:07:31;;;;;;;11.85;6.00;;;;;;;7.87;87.42;98907.03;5012440;28;20489;-61
2021/05/18 01:09:57;;;;;;;7.03;5.57;;;;;;;7.86;87.26;98908.09;5013848;28;20041;-61
2021/05/18 01:12:22;;;;;;;7.32;5.70;;;;;;;7.84;87.02;98912.84;5015933;28;20038;-61
2021/05/18 01:14:48;;;;;;;7.57;4.40;;;;;;;7.85;87.46;98917.13;5015087;28;20026;-61
2021/05/18 01:17:13;;;;;;;10.07;5.68;;;;;;;7.81;87.37;98907.13;5015989;28;20068;-62
2021/05/18 01:19:39;;;;;;;11.10;6.28;;;;;;;7.75;87.47;98907.00;5016771;28;20026;-61
2021/05/18 01:22:04;;;;;;;10.52;5.75;;;;;;;7.67;87.78;98898.56;5015777;28;20042;-61
2021/05/18 01:24:30;;;;;;;7.25;5.43;;;;;;;7.69;87.52;98901.81;5016367;28;20026;-61
2021/05/18 01:26:55;;;;;;;10.27;5.70;;;;;;;7.68;87.36;98900.97;5015810;28;20030;-61
2021/05/18 01:29:23;;;;;;;6.72;5.00;;;;;;;7.66;87.30;98903.09;5015198;28;20025;-62
2021/05/18 01:31:49;;;;;;;12.88;5.85;;;;;;;7.70;87.42;98908.75;5015584;28;20492;-64
2021/05/18 01:34:15;;;;;;;6.90;5.35;;;;;;;7.72;87.20;98906.69;5016070;28;20160;-62
2021/05/18 01:36:40;;;;;;;9.88;5.82;;;;;;;7.66;87.45;98907.59;5014234;28;20130;-63
2021/05/18 01:39:31;;;;;;;9.75;6.20;;;;;;;7.61;87.88;98915.47;5016024;28;20037;-63
2021/05/18 01:44:40;;;;;;;11.82;6.32;;;;;;;7.53;88.14;98913.97;5016046;28;20032;-63
2021/05/18 01:47:08;;;;;;;9.63;6.28;;;;;;;7.55;87.98;98914.53;5014950;28;20034;-63
2021/05/18 01:49:34;;;;;;;10.82;6.15;;;;;;;7.47;88.06;98914.91;5016159;28;20025;-62
2021/05/18 01:52:00;;;;;;;9.15;5.15;;;;;;;7.44;88.50;98912.66;5015343;28;20030;-63
2021/05/18 01:54:31;;;;;;;7.35;5.40;;;;;;;7.42;88.22;98906.78;5015732;28;20473;-62
2021/05/18 01:59:26;;;;;;;11.93;6.90;;;;;;;7.24;89.16;98915.63;5015659;28;20034;-62
2021/05/18 02:01:53;;;;;;;11.88;7.05;;;;;;;7.26;88.71;98918.88;5015156;28;20085;-62
2021/05/18 02:04:24;;;;;;;12.00;6.72;;;;;;;7.24;88.93;98931.63;5015397;28;20424;-62
2021/05/18 02:06:50;;;;;;;;;;;;;;;7.18;88.99;98921.88;5015572;28;20042;-63
2021/05/18 02:09:16;;;;;;;8.43;5.75;;;;;;;7.15;89.09;98931.16;5014001;28;19978;-63
2021/05/18 02:11:41;;;;;;;12.82;6.78;;;;;;;7.06;89.33;98925.34;5015046;28;20096;-62
2021/05/18 02:14:10;;;;;;;11.13;6.60;;;;;;;7.13;89.20;98914.56;5015309;28;20465;-62
2021/05/18 02:16:38;;;;;;;13.25;6.72;;;;;;;7.09;89.01;98922.22;5014831;28;20092;-63
2021/05/18 02:19:33;;;;;;;10.40;6.10;;;;;;;7.07;88.84;98921.63;4998306;28;20120;-63
2021/05/18 02:22:10;;;;;;;7.70;5.07;;;;;;;7.11;88.65;98917.47;5013643;28;20046;-63
2021/05/18 02:24:45;;;;;;;8.55;5.65;;;;;;;7.10;87.97;98926.50;4999338;28;20495;-62
2021/05/18 02:27:11;;;;;;;10.60;5.93;;;;;;;7.05;88.57;98929.03;4997302;28;20038;-62
2021/05/18 02:29:36;;;;;;;11.65;5.88;;;;;;;7.03;88.59;98925.78;5015167;28;20022;-62
2021/05/18 02:32:02;;;;;;;13.05;6.18;;;;;;;7.05;88.45;98934.38;5014879;28;20038;-63
2021/05/18 02:34:27;;;;;;;11.63;5.90;;;;;;;7.02;88.87;98934.81;5015112;28;20033;-62
2021/05/18 02:36:53;;;;;;;13.30;5.28;;;;;;;7.13;88.30;98935.91;4996979;28;20389;-62
2021/05/18 02:39:18;;;;;;;10.30;5.93;;;;;;;7.05;88.45;98933.56;5014868;28;20117;-63
2021/05/18 02:41:44;;;;;;;11.15;5.60;;;;;;;7.02;88.63;98942.81;4996894;28;20030;-62
2021/05/18 02:44:16;;;;;;;9.07;5.40;;;;;;;7.01;88.75;98943.84;5014747;28;20029;-62
2021/05/18 02:49:25;;;;;;;15.10;5.28;;;;;;;7.01;88.70;98953.69;5014918;28;20112;-63
2021/05/18 02:51:52;;;;;;;11.75;5.68;;;;;;;7.09;88.67;98956.06;5014484;28;20041;-62
2021/05/18 02:54:23;;;;;;;11.88;4.90;;;;;;;7.26;88.33;98956.22;5014689;28;20029;-63
2021/05/18 02:56:53;;;;;;;;;;;;;;;7.32;88.41;98964.13;5014683;28;20053;-63
2021/05/18 02:59:19;;;;;;;10.57;4.75;;;;;;;7.31;88.44;98953.69;5014635;28;19918;-62
2021/05/18 03:01:58;;;;;;;11.25;5.63;;;;;;;7.48;87.92;98957.31;5014412;28;20042;-62
2021/05/18 03:04:24;;;;;;;12.25;4.82;;;;;;;7.42;88.09;98952.91;5014662;28;20049;-63
2021/05/18 03:06:50;;;;;;;12.68;5.43;;;;;;;7.46;87.70;98962.09;5014077;28;20504;-63
2021/05/18 03:09:16;;;;;;;9.48;4.75;;;;;;;7.43;87.94;98970.53;4996900;28;20045;-63
2021/05/18 03:11:42;;;;;;;9.05;4.65;;;;;;;7.45;87.84;98971.09;5014011;28;20096;-63
2021/05/18 03:14:08;;;;;;;8.00;4.70;;;;;;;7.51;87.54;98970.22;5014364;28;20021;-62
2021/05/18 03:16:34;;;;;;;9.30;4.60;;;;;;;7.57;87.66;98969.28;4996124;28;20584;-62
2021/05/18 03:19:01;;;;;;;7.88;4.80;;;;;;;7.54;87.01;98964.41;5014457;28;20386;-62
2021/05/18 03:21:26;;;;;;;11.40;4.40;;;;;;;7.54;87.29;98963.59;5012513;28;20045;-61
2021/05/18 03:23:52;;;;;;;9.70;4.38;;;;;;;7.52;87.41;98966.50;5014204;28;20026;-63
2021/05/18 03:26:17;;;;;;;9.18;4.70;;;;;;;7.50;87.33;98963.22;5013715;28;20046;-61
2021/05/18 03:28:43;;;;;;;8.85;4.10;;;;;;;7.59;86.46;98957.56;4996571;28;20496;-61
2021/05/18 03:34:27;;;;;;;13.68;4.50;;;;;;;7.41;86.84;98967.25;5013527;28;20049;-61
2021/05/18 03:36:40;;;;;;;7.53;4.20;;;;;;;7.19;87.43;98960.81;5013544;28;20097;-63
2021/05/18 03:39:06;;;;;;;10.70;4.72;;;;;;;7.04;87.68;98962.06;5013820;28;20421;-63
2021/05/18 03:41:42;;;;;;;9.68;4.20;;;;;;;7.00;87.33;98958.22;5013358;28;20042;-63
2021/05/18 03:44:21;;;;;;;8.27;4.10;;;;;;;6.96;86.97;98962.34;5013299;28;20472;-61
2021/05/18 04:02:42;;;;;;;13.65;3.90;;;;;;;6.91;85.49;98970.22;5013262;28;20076;-61
2021/05/18 04:10:12;;;;;;;7.95;4.50;;;;;;;6.93;85.65;98957.47;5013294;28;20026;-62
2021/05/18 04:24:27;;;;;;;7.32;3.22;;;;;;;6.99;85.01;98979.75;5013370;28;20049;-61
2021/05/18 04:53:59;;;;;;;8.98;3.15;;;;;;;7.62;83.65;98978.47;5016971;28;20468;-61
2021/05/18 04:59:16;;;;;;;9.35;3.40;;;;;;;7.96;82.54;98983.03;5016903;28;20052;-61
2021/05/18 05:04:19;;;;;;;9.85;2.97;;;;;;;11.97;67.86;98998.97;5016760;28;20026;-64
2021/05/18 05:06:59;;;;;;;6.22;2.85;;;;;;;14.12;60.03;99003.19;5016406;28;20065;-63
2021/05/18 05:09:30;;;;;;;5.45;2.50;;;;;;;14.26;58.57;98997.28;5016783;28;20115;-61
2021/05/18 05:14:40;;;;;;;9.45;2.53;;;;;;;14.66;57.88;99012.59;5016568;28;20108;-61
2021/05/18 05:17:05;;;;;;;6.07;2.35;;;;;;;15.67;54.06;99010.44;5016189;28;20484;-62
2021/05/18 05:19:31;;;;;;;5.78;2.15;;;;;;;15.23;55.12;99011.28;4998796;28;20018;-62
2021/05/18 05:21:57;;;;;;;6.28;2.25;;;;;;;14.87;57.63;99007.91;4998412;28;20477;-62
2021/05/18 05:24:22;;;;;;;8.63;2.45;;;;;;;15.88;53.43;99015.75;5016374;28;20084;-62
2021/05/18 05:26:48;;;;;;;7.75;2.30;;;;;;;15.36;54.25;99014.44;5015670;28;20041;-61
2021/05/18 05:29:15;;;;;;;10.15;2.83;;;;;;;17.16;49.72;99023.34;5015226;28;20018;-61
2021/05/18 05:31:40;;;;;;;5.43;2.10;;;;;;;14.86;54.80;99001.72;5015793;28;20038;-61
2021/05/18 05:34:06;;;;;;;6.13;2.33;;;;;;;13.05;62.46;99016.50;5016199;28;20461;-61
2021/05/18 05:36:31;;;;;;;9.27;2.65;;;;;;;12.86;63.06;99021.53;5015727;28;20038;-61
2021/05/18 05:39:07;;;;;;;6.28;2.70;;;;;;;12.13;66.07;99014.13;5016259;28;20029;-64
2021/05/18 05:41:32;;;;;;;6.43;2.72;;;;;;;11.28;69.95;99013.84;5015578;28;20111;-63
2021/05/18 05:43:58;;;;;;;6.07;2.70;;;;;;;11.87;68.60;99013.13;5016152;28;20030;-63
2021/05/18 05:46:23;;;;;;;9.40;3.38;;;;;;;11.51;70.28;99009.28;5015472;28;20034;-63
2021/05/18 05:48:52;;;;;;;6.40;2.70;;;;;;;11.26;71.96;99012.47;5015546;28;20029;-63
2021/05/18 05:51:20;;;;;;;7.28;2.67;;;;;;;10.95;72.86;99012.16;5015384;28;20042;-61
2021/05/18 05:53:45;;;;;;;5.03;2.85;;;;;;;10.31;75.06;99013.47;5015967;28;20511;-62
2021/05/18 05:56:11;;;;;;;7.30;3.28;;;;;;;10.74;73.87;99016.47;4997859;28;20038;-61
2021/05/18 05:58:36;;;;;;;6.18;3.10;;;;;;;10.56;74.76;99013.00;5031232;28;20029;-61
2021/05/18 06:01:02;;;;;;;10.43;3.20;;;;;;;11.04;73.25;99023.25;4997933;28;20547;-61
2021/05/18 06:03:27;;;;;;;5.07;3.00;;;;;;;11.87;71.68;99013.91;5015918;28;20018;-60
2021/05/18 06:05:53;;;;;;;9.43;2.90;;;;;;;12.12;68.56;99009.81;5015363;28;20373;-61
2021/05/18 06:08:18;;;;;;;9.48;3.10;;;;;;;11.48;71.43;99026.66;5030823;28;20368;-61
2021/05/18 06:10:46;;;;;;;5.72;3.10;;;;;;;11.93;70.08;99024.69;5015233;28;20050;-61
2021/05/18 06:47:56;;;;;;;6.93;2.90;;;;;;;12.28;67.26;99043.78;5027803;28;20044;-61
2021/05/18 06:50:29;;;;;;;6.55;2.83;;;;;;;11.90;70.28;99047.50;5014370;28;20385;-61
2021/05/18 06:52:56;;;;;;;5.72;2.67;;;;;;;11.54;70.92;99051.72;5015093;28;20357;-61
2021/05/18 06:55:25;;;;;;;5.85;2.90;;;;;;;11.60;71.66;99053.38;5014122;28;20065;-61
2021/05/18 06:57:56;;;;;;;6.55;2.75;;;;;;;11.29;74.15;99058.41;5014732;28;20022;-61
2021/05/18 07:00:21;;;;;;;4.85;2.80;;;;;;;11.12;75.56;99060.38;5014353;28;20068;-61
2021/05/18 07:02:49;;;;;;;6.20;2.90;;;;;;;10.81;76.23;99062.66;5014693;28;20477;-62
2021/05/18 07:08:58;;;;;;;8.52;2.90;;;;;;;10.52;78.04;99068.16;5013908;28;20020;-62
2021/05/18 07:10:53;;;;;;;7.03;2.70;;;;;;;10.41;77.69;99070.91;5000766;28;20046;-62
2021/05/18 07:13:18;;;;;;;6.30;2.58;;;;;;;10.44;77.41;99075.81;5014586;28;20392;-62
2021/05/18 07:15:44;;;;;;;5.30;2.53;;;;;;;10.24;78.19;99081.63;5012698;28;20404;-63
2021/05/18 07:18:09;;;;;;;4.63;2.30;;;;;;;10.06;77.24;99078.13;5014209;28;20362;-62
2021/05/18 07:20:35;;;;;;;10.60;2.40;;;;;;;9.70;78.67;99088.19;5013967;28;20042;-62
2021/05/18 07:23:07;;;;;;;4.18;1.90;;;;;;;9.77;76.84;99092.59;5014341;28;20033;-64
2021/05/18 07:25:32;;;;;;;4.65;1.70;;;;;;;9.38;77.20;99095.06;5013820;28;20427;-62
2021/05/18 07:27:58;;;;;;;2.90;1.70;;;;;;;9.17;79.91;99094.69;5014108;28;20021;-62
2021/05/18 07:30:23;;;;;;;23.27;3.42;;;;;;;9.05;80.63;99107.25;5013535;28;20037;-62
2021/05/18 07:32:48;;;;;;;26.65;3.17;;;;;;;8.99;80.44;99109.00;5013886;28;20021;-63
2021/05/18 07:35:14;;;;;;;10.07;2.22;;;;;;;9.15;80.91;99120.84;5013601;28;20038;-63
2021/05/18 07:37:39;;;;;;;5.45;1.60;;;;;;;9.06;79.00;99109.69;5014293;28;20092;-63
2021/05/18 07:40:06;;;;;;;1.92;1.50;;;;;;;8.94;78.98;99105.44;5013579;28;20030;-63
2021/05/18 07:42:32;;;;;;;2.88;1.50;;;;;;;8.97;79.25;99099.59;5013840;28;20037;-63
2021/05/18 07:44:57;;;;;;;3.80;1.40;;;;;;;8.85;79.52;99102.28;5013931;28;20021;-64
2021/05/18 07:47:27;;;;;;;1.90;1.38;;;;;;;8.88;79.36;99103.69;5013597;28;20038;-63
2021/05/18 07:49:58;;;;;;;2.42;1.27;;;;;;;8.78;80.34;99107.75;5014181;28;20026;-62
2021/05/18 08:05:55;;;;;;;1.38;1.02;;;;;;;9.20;74.93;99101.41;4976896;28;20045;-64
2021/05/18 08:08:20;;;;;;;1.35;0.80;;;;;;;9.43;74.50;99103.19;5013504;28;20049;-62
2021/05/18 08:13:12;;;;;;;1.10;0.98;;;;;;;9.18;76.04;99100.84;5013724;28;20130;-63
2021/05/18 08:21:16;;;;;;;4.30;1.40;;;;;;;9.60;73.79;99106.75;5026947;28;20038;-63
2021/05/18 10:18:33;;;;;;;1.20;1.10;;;;;;;16.49;53.67;99079.28;5015065;28;20046;-63
2021/05/18 10:26:07;;;;;;;4.15;1.38;;;;;;;15.85;51.08;99073.03;5014802;28;20022;-62
2021/05/18 10:36:10;;;;;;;3.78;1.08;;;;;;;15.89;52.04;99064.09;5014756;28;20096;-63
2021/05/18 10:38:44;;;;;;;2.25;1.30;;;;;;;15.42;56.15;99064.63;5014996;28;20084;-63
2021/05/18 10:41:17;;;;;;;1.75;1.25;;;;;;;16.02;53.04;99053.72;5014365;28;20497;-63
2021/05/18 10:43:44;;;;;;;3.95;1.23;;;;;;;14.08;59.39;99039.03;5014015;28;20029;-62
2021/05/18 10:46:20;;;;;;;1.92;1.17;;;;;;;13.90;60.79;99043.88;5014353;28;20095;-62
2021/05/18 10:48:53;;;;;;;1.38;1.20;;;;;;;15.48;55.62;99044.63;4997224;28;20568;-63
2021/05/18 10:51:35;;;;;;;2.63;1.52;;;;;;;15.78;56.91;99037.44;4997493;28;20108;-62
2021/05/18 10:54:19;;;;;;;1.73;1.38;;;;;;;14.88;56.85;99040.03;5014856;28;20033;-62
2021/05/18 10:56:58;;;;;;;1.63;1.30;;;;;;;13.44;62.16;99043.84;5014312;28;20041;-64
2021/05/18 10:59:37;;;;;;;1.98;1.40;;;;;;;14.11;64.17;99038.53;5014880;28;20033;-63
2021/05/18 11:02:08;;;;;;;1.70;1.30;;;;;;;16.33;57.76;99027.25;5014360;28;20556;-62
2021/05/18 11:04:38;;;;;;;1.30;1.20;;;;;;;15.93;58.46;99031.91;4997195;28;20104;-62
2021/05/18 11:07:04;;;;;;;;;;;;;;;14.69;62.79;99027.41;5014429;28;20061;-62
2021/05/18 11:09:29;;;;;;;1.85;1.40;;;;;;;16.64;57.58;99029.63;5014519;28;19952;-62
2021/05/18 11:12:17;;;;;;;1.60;1.40;;;;;;;16.52;51.55;99022.72;5012933;28;20493;-62
2021/05/18 11:14:50;;;;;;;2.03;1.45;;;;;;;16.39;54.59;99026.91;5014557;28;20030;-62
2021/05/18 11:17:27;;;;;;;1.60;1.40;;;;;;;17.35;54.18;99034.22;5013863;28;20038;-62
2021/05/18 11:20:07;;;;;;;1.50;1.20;;;;;;;15.58;58.24;99036.44;5014380;28;20472;-63
2021/05/18 11:23:19;;;;;;;1.05;0.98;;;;;;;15.78;59.96;99032.84;5027729;28;20126;-62
2021/05/18 11:25:49;;;;;;;1.52;1.10;;;;;;;16.54;55.47;99034.06;4972802;28;20043;-63
2021/05/18 11:28:17;;;;;;;1.95;1.33;;;;;;;16.41;56.22;99034.75;4992545;28;20395;-62
2021/05/18 11:30:44;;;;;;;1.25;1.10;;;;;;;15.13;59.47;99027.53;5013938;28;20054;-64
2021/05/18 11:33:10;;;;;;;3.85;2.25;;;;;;;15.95;58.24;99038.66;4996585;28;20464;-64
2021/05/18 11:35:35;;;;;;;4.85;2.42;;;;;;;15.78;59.81;99040.94;5013579;28;20042;-63
2021/05/18 11:38:06;;;;;;;3.22;1.40;;;;;;;14.52;54.32;99055.44;5013967;28;20036;-63
2021/05/18 11:40:43;;;;;;;5.13;1.95;;;;;;;14.24;56.56;99073.81;5013409;28;20054;-63
2021/05/18 11:43:13;;;;;;;6.85;2.38;;;;;;;13.61;58.34;99088.59;5014138;28;20030;-63
2021/05/18 11:45:40;;;;;;;5.63;1.95;;;;;;;13.27;59.69;99103.25;5013367;28;20041;-63
2021/05/18 11:48:17;;;;;;;2.15;1.48;;;;;;;12.77;66.21;99111.84;5012675;28;20100;-61
2021/05/18 11:50:42;;;;;;;3.75;1.70;;;;;;;12.37;70.85;99114.00;5013439;28;20061;-64
2021/05/18 11:53:08;;;;;;;5.35;1.80;;;;;;;11.91;74.32;99112.78;5028918;28;20062;-64
2021/05/18 11:55:34;;;;;;;8.10;2.40;;;;;;;11.68;77.09;99111.97;5028588;28;20054;-63
2021/05/18 11:58:00;;;;;;;3.10;1.90;;;;;;;11.93;74.65;99107.94;5013702;28;20022;-63
2021/05/18 12:00:30;;;;;;;4.80;1.80;;;;;;;11.96;73.79;99110.16;5013072;28;20044;-63
2021/05/18 12:03:10;;;;;;;2.42;1.73;;;;;;;11.97;72.41;99114.44;5011960;28;20022;-63
2021/05/18 12:05:53;;;;;;;3.72;1.90;;;;;;;12.49;70.90;99109.25;5013215;28;20037;-63
2021/05/18 12:08:31;;;;;;;5.97;2.00;;;;;;;12.14;68.77;99114.34;5013291;28;20084;-63
2021/05/18 12:11:16;;;;;;;2.58;1.77;;;;;;;12.69;65.65;99103.19;4995444;28;20038;-63
2021/05/18 12:13:43;;;;;;;5.60;1.80;;;;;;;13.04;64.55;99107.16;5013534;28;20018;-63
2021/05/18 12:16:09;;;;;;;3.88;2.05;;;;;;;13.73;63.25;99106.13;4995460;28;20068;-64
2021/05/18 12:18:35;;;;;;;5.55;2.08;;;;;;;13.72;66.49;99107.16;4995854;28;20030;-63
2021/05/18 12:21:11;;;;;;;3.97;2.00;;;;;;;12.86;67.84;99105.72;5012845;28;20581;-64
2021/05/18 12:23:36;;;;;;;6.25;2.40;;;;;;;13.07;69.58;99106.63;5013396;28;20330;-66
2021/05/18 12:26:16;;;;;;;4.05;2.20;;;;;;;12.64;68.74;99108.53;5013116;28;20052;-64
2021/05/18 12:28:58;;;;;;;5.38;2.15;;;;;;;12.05;68.82;99114.78;5013303;28;20124;-63
2021/05/18 12:31:36;;;;;;;5.15;2.35;;;;;;;11.36;72.81;99110.03;5027777;28;20036;-63
2021/05/18 12:34:04;;;;;;;4.63;2.10;;;;;;;10.93;74.86;99100.91;5013364;28;20061;-64
2021/05/18 12:36:30;;;;;;;8.93;2.55;;;;;;;10.74;76.52;99113.75;4995289;28;20033;-62
2021/05/18 12:39:12;;;;;;;3.38;2.20;;;;;;;9.93;79.44;99099.84;5013220;28;20109;-65
2021/05/18 12:41:56;;;;;;;5.60;2.90;;;;;;;10.53;82.64;99109.97;5012871;28;20026;-66
2021/05/18 12:44:25;;;;;;;5.05;2.60;;;;;;;10.71;77.38;99113.47;5013300;28;20384;-67
2021/05/18 12:47:10;;;;;;;6.95;3.13;;;;;;;10.66;79.63;99113.34;5012901;28;20037;-66
2021/05/18 12:49:37;;;;;;;6.72;2.58;;;;;;;10.48;79.04;99114.44;5026534;28;20062;-68
2021/05/18 12:52:03;;;;;;;6.88;2.60;;;;;;;10.42;80.24;99121.59;5027724;28;20089;-66
2021/05/18 12:54:40;;;;;;;4.28;2.55;;;;;;;10.83;79.62;99108.78;4995551;28;20038;-66
2021/05/18 12:57:06;;;;;;;7.22;3.38;;;;;;;11.21;80.75;99110.66;5012601;28;20042;-66
2021/05/18 12:59:31;;;;;;;4.57;2.75;;;;;;;10.89;80.03;99099.75;4995508;28;20457;-66
2021/05/18 13:01:57;;;;;;;4.45;2.45;;;;;;;11.25;77.92;99102.91;4995082;28;20034;-66
2021/05/18 13:04:23;;;;;;;4.05;2.03;;;;;;;11.01;73.58;99107.72;4995754;28;20354;-66
2021/05/18 13:06:49;;;;;;;6.85;2.80;;;;;;;11.24;76.15;99106.66;5015338;28;20145;-68
2021/05/18 13:09:18;;;;;;;4.07;2.20;;;;;;;11.80;70.98;99103.78;5016793;28;20121;-67
2021/05/18 13:14:27;;;;;;;4.07;2.05;;;;;;;12.91;68.41;99096.88;5016747;28;20088;-67
2021/05/18 13:16:53;;;;;;;4.47;1.75;;;;;;;13.04;64.81;99101.78;5031592;28;20049;-67
2021/05/18 13:19:18;;;;;;;2.70;1.60;;;;;;;12.29;66.23;99090.28;5015444;28;20033;-67
2021/05/18 13:21:59;;;;;;;3.67;1.92;;;;;;;11.05;77.12;99082.00;5016319;28;20038;-66
2021/05/18 13:27:09;;;;;;;5.65;2.10;;;;;;;11.59;73.90;99075.91;5016185;28;20049;-65
2021/05/18 13:29:35;;;;;;;4.30;1.90;;;;;;;11.74;73.02;99077.94;5016563;28;20029;-65
2021/05/18 13:32:01;;;;;;;2.92;1.90;;;;;;;11.87;70.44;99088.31;5016034;28;20228;-65
2021/05/18 13:34:26;;;;;;;3.80;1.92;;;;;;;11.48;73.14;99095.66;5016476;28;20032;-65
2021/05/18 13:36:52;;;;;;;14.43;6.85;;;;;;;10.95;76.02;99103.31;5015777;28;20034;-65
2021/05/18 13:39:19;;;;;;;17.10;7.70;;;;;;;10.89;76.95;99105.13;5016255;28;20026;-65
2021/05/18 13:41:45;;;;;;;8.13;4.32;;;;;;;10.86;78.06;99108.31;5015814;28;20117;-65
2021/05/18 13:44:12;;;;;;;5.60;2.97;;;;;;;10.24;80.90;99109.22;5016363;28;20517;-65
2021/05/18 13:46:37;;;;;;;4.00;2.65;;;;;;;10.17;80.87;99113.91;5015607;28;20038;-65
2021/05/18 13:49:03;;;;;;;5.72;2.78;;;;;;;9.77;80.64;99106.00;5016132;28;20030;-65
2021/05/18 13:51:29;;;;;;;4.60;2.45;;;;;;;9.83;81.88;99094.31;5015587;28;20042;-65
2021/05/18 13:53:55;;;;;;;3.67;2.05;;;;;;;9.63;79.68;99092.88;5015978;28;20397;-65
2021/05/18 13:56:23;;;;;;;6.25;2.35;;;;;;;9.59;81.13;99083.72;5015548;28;20510;-65
2021/05/18 13:58:48;;;;;;;6.75;2.80;;;;;;;9.72;81.99;99083.41;5015851;28;20076;-65
2021/05/18 14:01:15;;;;;;;3.90;2.17;;;;;;;9.92;81.00;99091.00;5015135;28;20042;-66
2021/05/18 14:03:40;;;;;;;3.80;2.10;;;;;;;10.05;80.07;99089.88;5015786;28;20030;-66
2021/05/18 14:06:06;;;;;;;3.20;2.00;;;;;;;10.23;79.57;99082.66;5015381;28;20038;-66
2021/05/18 14:08:35;;;;;;;4.53;2.00;;;;;;;10.13;77.85;99086.81;5015397;28;20046;-66
2021/05/18 14:11:17;;;;;;;3.13;1.80;;;;;;;10.23;77.67;99090.69;5015463;28;20179;-66
2021/05/18 14:13:44;;;;;;;8.45;2.05;;;;;;;10.09;78.85;99092.91;4998277;28;20477;-66
2021/05/18 14:16:10;;;;;;;6.03;2.22;;;;;;;10.04;80.70;99101.66;4997602;28;20038;-65
2021/05/18 14:18:36;;;;;;;4.30;2.90;;;;;;;9.90;82.46;99098.47;5015517;28;20026;-65
2021/05/18 14:21:03;;;;;;;3.83;2.60;;;;;;;9.90;81.97;99086.94;5030054;28;20057;-65
2021/05/18 14:23:35;;;;;;;6.20;2.40;;;;;;;10.05;82.00;99095.22;5015431;28;20065;-65
2021/05/18 14:26:00;;;;;;;3.55;2.38;;;;;;;10.06;81.41;99088.84;5014874;28;20368;-65
2021/05/18 14:28:26;;;;;;;2.83;1.80;;;;;;;9.98;79.79;99093.75;5015363;28;20041;-65
2021/05/18 14:30:51;;;;;;;3.97;1.70;;;;;;;10.02;78.60;99085.00;5014973;28;20034;-65
2021/05/18 14:33:17;;;;;;;3.60;1.70;;;;;;;10.38;77.51;99082.94;5015406;28;20025;-65
2021/05/18 14:35:43;;;;;;;3.58;1.45;;;;;;;10.17;77.18;99081.78;4980936;28;20056;-65
2021/05/18 14:38:12;;;;;;;2.28;1.60;;;;;;;11.15;74.05;99086.69;5015186;28;20021;-65
2021/05/18 14:56:56;;;;;;;1.75;1.50;;;;;;;10.98;75.30;99079.50;5014342;28;20173;-65
2021/05/18 14:59:21;;;;;;;1.48;1.38;;;;;;;10.82;77.30;99077.69;5014787;28;20445;-65
2021/05/18 15:01:47;;;;;;;1.80;1.30;;;;;;;10.84;76.75;99077.44;5014225;28;20045;-65
2021/05/18 15:04:13;;;;;;;1.52;1.40;;;;;;;10.97;76.99;99080.56;4981150;28;20025;-65
2021/05/18 15:06:42;;;;;;;3.20;1.50;;;;;;;10.80;76.62;99079.78;5014200;28;20498;-65
2021/05/18 15:09:08;;;;;;;1.63;1.27;;;;;;;10.62;77.19;99077.41;4993948;28;20042;-65
2021/05/18 15:11:34;;;;;;;1.67;1.50;;;;;;;10.85;76.72;99079.06;4993287;28;20460;-65
2021/05/18 15:13:59;;;;;;;1.63;1.50;;;;;;;11.08;76.43;99075.31;4995085;28;20035;-65
2021/05/18 15:16:24;;;;;;;2.28;1.63;;;;;;;10.89;77.20;99072.94;4994582;28;20042;-65
2021/05/18 15:18:52;;;;;;;2.90;1.70;;;;;;;11.23;76.55;99087.06;4994870;28;20030;-65
2021/05/18 15:21:18;;;;;;;1.55;1.42;;;;;;;11.07;74.46;99085.25;4994414;28;20039;-65
2021/05/18 15:23:44;;;;;;;4.63;2.00;;;;;;;11.15;75.29;99086.69;4993632;28;20085;-65
2021/05/18 15:26:09;;;;;;;3.30;1.70;;;;;;;10.76;77.11;99086.72;4993135;28;20039;-65
2021/05/18 15:28:35;;;;;;;2.95;1.77;;;;;;;10.87;78.87;99106.44;4994152;28;20077;-66
2021/05/18 15:31:00;;;;;;;2.90;1.90;;;;;;;10.60;80.71;99104.44;4976612;28;20053;-63
2021/05/18 15:33:26;;;;;;;4.80;2.42;;;;;;;10.60;82.07;99117.84;4994503;28;20077;-64
2021/05/18 15:35:51;;;;;;;2.95;1.80;;;;;;;10.55;82.22;99126.59;4992641;28;20034;-64
2021/05/18 15:38:17;;;;;;;4.90;2.20;;;;;;;10.55;81.18;99118.56;4994468;28;20026;-64
2021/05/18 15:40:44;;;;;;;4.68;2.20;;;;;;;10.27;81.97;99113.28;4994221;28;20034;-64
2021/05/18 15:43:10;;;;;;;4.70;2.05;;;;;;;10.34;82.19;99103.25;4994587;28;20030;-65
2021/05/18 15:45:35;;;;;;;4.30;2.10;;;;;;;10.67;83.64;99090.88;4993943;28;20095;-65
2021/05/18 15:48:04;;;;;;;2.95;1.80;;;;;;;10.74;83.18;99080.78;4994335;28;20019;-65
2021/05/18 15:50:29;;;;;;;4.10;2.22;;;;;;;11.15;83.06;99078.63;4992441;28;20466;-65
2021/05/18 15:52:55;;;;;;;2.20;1.63;;;;;;;11.10;79.79;99078.56;4992901;28;20029;-65
2021/05/18 15:55:20;;;;;;;5.05;2.17;;;;;;;11.53;78.87;99071.53;4993574;28;20043;-65
2021/05/18 15:57:45;;;;;;;3.60;2.10;;;;;;;11.85;79.15;99080.47;4993983;28;20030;-65
2021/05/18 16:00:11;;;;;;;3.25;1.90;;;;;;;11.41;76.49;99083.25;4993495;28;20026;-67
2021/05/18 16:02:37;;;;;;;4.65;2.13;;;;;;;11.61;73.79;99079.16;4993946;28;20034;-65
2021/05/18 16:05:03;;;;;;;3.17;2.00;;;;;;;11.50;73.03;99083.59;4993467;28;20401;-65
2021/05/18 16:07:28;;;;;;;2.80;2.00;;;;;;;11.34;72.15;99090.66;4992729;28;20037;-65
2021/05/18 16:09:54;;;;;;;4.18;2.25;;;;;;;11.42;74.04;99092.91;4992747;28;20046;-66
2021/05/18 16:12:21;;;;;;;3.15;2.10;;;;;;;11.60;72.13;99093.63;4993481;28;20069;-65
2021/05/18 16:14:47;;;;;;;4.20;1.90;;;;;;;11.83;71.18;99096.03;4993985;28;20113;-66
2021/05/18 16:17:12;;;;;;;5.18;2.10;;;;;;;11.58;71.90;99101.13;4993220;28;20100;-65
2021/05/18 16:19:38;;;;;;;2.35;1.73;;;;;;;11.20;71.74;99100.16;4992889;28;20026;-65
2021/05/18 16:22:04;;;;;;;4.10;1.90;;;;;;;11.25;72.93;99092.16;4993532;28;20038;-65
2021/05/18 16:24:33;;;;;;;2.63;1.95;;;;;;;11.33;73.51;99098.97;4992478;28;20034;-66
2021/05/18 16:26:59;;;;;;;2.78;1.90;;;;;;;11.42;72.45;99092.91;4993445;28;20038;-66
2021/05/18 16:29:27;;;;;;;2.53;1.92;;;;;;;11.58;72.57;99099.28;4993738;28;20026;-65
2021/05/18 16:31:52;;;;;;;2.30;1.58;;;;;;;11.15;71.50;99094.72;4993346;28;20064;-65
2021/05/18 16:34:18;;;;;;;2.65;1.67;;;;;;;11.43;72.18;99091.84;4993601;28;20034;-65